sensor_id;sensor_type;location;lat;lon;timestamp;temperature;humidity
19941;DHT22;10132;50.864;5.176;2023-05-14T00:01:43;14.30;99.90
19941;DHT22;10132;50.864;5.176;2023-05-14T00:03:46;14.30;99.90
19941;DHT22;10132;50.864;5.176;2023-05-14T00:05:48;14.20;99.90
19941;DHT22;10132;50.864;5.176;2023-05-14T00:07:50;14.10;99.90
19941;DHT22;10132;50.864;5.176;2023-05-14T00:09:53;14.10;99.90
19941;DHT22;10132;50.864;5.176;2023-05-14T00:11:55;14.10;99.90
19941;DHT22;10132;50.864;5.176;2023-05-14T00:13:57;14.10;99.90
19941;DHT22;10132;50.864;5.176;2023-05-14T00:15:59;14.00;99.90
19941;DHT22;10132;50.864;5.176;2023-05-14T00:18:03;14.10;99.90
19941;DHT22;10132;50.864;5.176;2023-05-14T00:20:09;14.10;99.90
19941;DHT22;10132;50.864;5.176;2023-05-14T00:22:11;14.20;99.90
19941;DHT22;10132;50.864;5.176;2023-05-14T00:24:14;14.30;99.90
19941;DHT22;10132;50.864;5.176;2023-05-14T00:26:16;14.20;99.90
19941;DHT22;10132;50.864;5.176;2023-05-14T00:28:19;14.00;99.90
19941;DHT22;10132;50.864;5.176;2023-05-14T00:30:23;13.90;99.90
19941;DHT22;10132;50.864;5.176;2023-05-14T00:32:25;13.60;99.90
19941;DHT22;10132;50.864;5.176;2023-05-14T00:34:29;13.50;99.90
19941;DHT22;10132;50.864;5.176;2023-05-14T00:36:31;13.50;99.90
19941;DHT22;10132;50.864;5.176;2023-05-14T00:38:33;13.40;99.90
19941;DHT22;10132;50.864;5.176;2023-05-14T00:40:35;13.50;99.90
19941;DHT22;10132;50.864;5.176;2023-05-14T00:42:38;13.40;99.90
19941;DHT22;10132;50.864;5.176;2023-05-14T00:44:40;13.20;99.90
19941;DHT22;10132;50.864;5.176;2023-05-14T00:46:43;13.20;99.90
19941;DHT22;10132;50.864;5.176;2023-05-14T00:48:45;13.20;99.90
19941;DHT22;10132;50.864;5.176;2023-05-14T00:50:50;13.20;99.90
19941;DHT22;10132;50.864;5.176;2023-05-14T00:52:52;13.20;99.90
19941;DHT22;10132;50.864;5.176;2023-05-14T00:54:56;13.30;99.90
19941;DHT22;10132;50.864;5.176;2023-05-14T00:56:59;13.40;99.90
19941;DHT22;10132;50.864;5.176;2023-05-14T00:59:02;13.50;99.90
19941;DHT22;10132;50.864;5.176;2023-05-14T01:01:04;13.50;99.90
19941;DHT22;10132;50.864;5.176;2023-05-14T01:03:06;13.40;99.90
19941;DHT22;10132;50.864;5.176;2023-05-14T01:05:09;13.30;99.90
19941;DHT22;10132;50.864;5.176;2023-05-14T01:07:29;13.20;99.90
19941;DHT22;10132;50.864;5.176;2023-05-14T01:09:41;13.10;99.90
19941;DHT22;10132;50.864;5.176;2023-05-14T01:11:53;13.10;99.90
19941;DHT22;10132;50.864;5.176;2023-05-14T01:14:04;13.00;99.90
19941;DHT22;10132;50.864;5.176;2023-05-14T01:16:12;12.90;99.90
19941;DHT22;10132;50.864;5.176;2023-05-14T01:18:17;12.90;99.90
19941;DHT22;10132;50.864;5.176;2023-05-14T01:20:20;12.90;99.90
19941;DHT22;10132;50.864;5.176;2023-05-14T01:22:23;12.90;99.90
19941;DHT22;10132;50.864;5.176;2023-05-14T01:24:26;13.00;99.90
19941;DHT22;10132;50.864;5.176;2023-05-14T01:26:29;13.10;99.90
19941;DHT22;10132;50.864;5.176;2023-05-14T01:28:34;13.10;99.90
19941;DHT22;10132;50.864;5.176;2023-05-14T01:30:43;13.10;99.90
19941;DHT22;10132;50.864;5.176;2023-05-14T01:32:49;13.10;99.90
19941;DHT22;10132;50.864;5.176;2023-05-14T01:34:52;13.10;99.90
19941;DHT22;10132;50.864;5.176;2023-05-14T01:36:57;13.10;99.90
19941;DHT22;10132;50.864;5.176;2023-05-14T01:39:01;13.00;99.90
19941;DHT22;10132;50.864;5.176;2023-05-14T01:41:04;13.00;99.90
19941;DHT22;10132;50.864;5.176;2023-05-14T01:43:07;13.00;99.90
19941;DHT22;10132;50.864;5.176;2023-05-14T01:45:10;13.00;99.90
19941;DHT22;10132;50.864;5.176;2023-05-14T01:47:12;13.00;99.90
19941;DHT22;10132;50.864;5.176;2023-05-14T01:49:15;13.00;99.90
19941;DHT22;10132;50.864;5.176;2023-05-14T01:51:18;12.90;99.90
19941;DHT22;10132;50.864;5.176;2023-05-14T01:53:21;12.90;99.90
19941;DHT22;10132;50.864;5.176;2023-05-14T01:55:24;12.80;99.90
19941;DHT22;10132;50.864;5.176;2023-05-14T01:57:26;12.80;99.90
19941;DHT22;10132;50.864;5.176;2023-05-14T01:59:29;12.80;99.90
19941;DHT22;10132;50.864;5.176;2023-05-14T02:01:32;12.80;99.90
19941;DHT22;10132;50.864;5.176;2023-05-14T02:03:34;12.70;99.90
19941;DHT22;10132;50.864;5.176;2023-05-14T02:05:36;12.70;99.90
19941;DHT22;10132;50.864;5.176;2023-05-14T02:07:39;12.50;99.90
19941;DHT22;10132;50.864;5.176;2023-05-14T02:09:41;12.50;99.90
19941;DHT22;10132;50.864;5.176;2023-05-14T02:11:45;12.40;99.90
19941;DHT22;10132;50.864;5.176;2023-05-14T02:13:47;12.50;99.90
19941;DHT22;10132;50.864;5.176;2023-05-14T02:15:50;12.50;99.90
19941;DHT22;10132;50.864;5.176;2023-05-14T02:17:52;12.50;99.90
19941;DHT22;10132;50.864;5.176;2023-05-14T02:19:54;12.40;99.90
19941;DHT22;10132;50.864;5.176;2023-05-14T02:21:57;12.30;99.90
19941;DHT22;10132;50.864;5.176;2023-05-14T02:24:00;12.30;99.90
19941;DHT22;10132;50.864;5.176;2023-05-14T02:26:02;12.30;99.90
19941;DHT22;10132;50.864;5.176;2023-05-14T02:28:06;12.20;99.90
19941;DHT22;10132;50.864;5.176;2023-05-14T02:30:10;12.20;99.90
19941;DHT22;10132;50.864;5.176;2023-05-14T02:32:12;12.30;99.90
19941;DHT22;10132;50.864;5.176;2023-05-14T02:34:14;12.50;99.90
19941;DHT22;10132;50.864;5.176;2023-05-14T02:36:17;12.60;99.90
19941;DHT22;10132;50.864;5.176;2023-05-14T02:38:19;12.70;99.90
19941;DHT22;10132;50.864;5.176;2023-05-14T02:40:21;12.70;99.90
19941;DHT22;10132;50.864;5.176;2023-05-14T02:42:24;12.70;99.90
19941;DHT22;10132;50.864;5.176;2023-05-14T02:44:29;12.70;99.90
19941;DHT22;10132;50.864;5.176;2023-05-14T02:46:32;12.80;99.90
19941;DHT22;10132;50.864;5.176;2023-05-14T02:48:34;12.90;99.90
19941;DHT22;10132;50.864;5.176;2023-05-14T02:50:37;12.90;99.90
19941;DHT22;10132;50.864;5.176;2023-05-14T02:52:39;12.80;99.90
19941;DHT22;10132;50.864;5.176;2023-05-14T02:54:41;12.80;99.90
19941;DHT22;10132;50.864;5.176;2023-05-14T02:56:43;12.60;99.90
19941;DHT22;10132;50.864;5.176;2023-05-14T02:58:45;12.50;99.90
19941;DHT22;10132;50.864;5.176;2023-05-14T03:00:48;12.50;99.90
19941;DHT22;10132;50.864;5.176;2023-05-14T03:02:51;12.60;99.90
19941;DHT22;10132;50.864;5.176;2023-05-14T03:04:53;12.70;99.90
19941;DHT22;10132;50.864;5.176;2023-05-14T03:06:55;12.70;99.90
19941;DHT22;10132;50.864;5.176;2023-05-14T03:08:57;12.70;99.90
19941;DHT22;10132;50.864;5.176;2023-05-14T03:10:59;12.70;99.90
19941;DHT22;10132;50.864;5.176;2023-05-14T03:13:02;12.80;99.90
19941;DHT22;10132;50.864;5.176;2023-05-14T03:15:05;12.70;99.90
19941;DHT22;10132;50.864;5.176;2023-05-14T03:17:10;12.60;99.90
19941;DHT22;10132;50.864;5.176;2023-05-14T03:19:12;12.50;99.90
19941;DHT22;10132;50.864;5.176;2023-05-14T03:21:14;12.40;99.90
19941;DHT22;10132;50.864;5.176;2023-05-14T03:23:16;12.30;99.90
19941;DHT22;10132;50.864;5.176;2023-05-14T03:25:18;12.30;99.90
19941;DHT22;10132;50.864;5.176;2023-05-14T03:27:21;12.40;99.90
19941;DHT22;10132;50.864;5.176;2023-05-14T03:29:23;12.40;99.90
19941;DHT22;10132;50.864;5.176;2023-05-14T03:31:26;12.40;99.90
19941;DHT22;10132;50.864;5.176;2023-05-14T03:33:30;12.50;99.90
19941;DHT22;10132;50.864;5.176;2023-05-14T03:35:32;12.50;99.90
19941;DHT22;10132;50.864;5.176;2023-05-14T03:37:34;12.40;99.90
19941;DHT22;10132;50.864;5.176;2023-05-14T03:39:37;12.30;99.90
19941;DHT22;10132;50.864;5.176;2023-05-14T03:41:40;12.20;99.90
19941;DHT22;10132;50.864;5.176;2023-05-14T03:43:43;12.10;99.90
19941;DHT22;10132;50.864;5.176;2023-05-14T03:45:45;12.00;99.90
19941;DHT22;10132;50.864;5.176;2023-05-14T03:47:52;11.90;99.90
19941;DHT22;10132;50.864;5.176;2023-05-14T03:49:56;11.70;99.90
19941;DHT22;10132;50.864;5.176;2023-05-14T03:51:59;11.60;99.90
19941;DHT22;10132;50.864;5.176;2023-05-14T03:54:03;11.50;99.90
19941;DHT22;10132;50.864;5.176;2023-05-14T03:56:05;11.60;99.90
19941;DHT22;10132;50.864;5.176;2023-05-14T03:58:07;11.70;99.90
19941;DHT22;10132;50.864;5.176;2023-05-14T04:00:14;11.60;99.90
19941;DHT22;10132;50.864;5.176;2023-05-14T04:02:16;11.60;99.90
19941;DHT22;10132;50.864;5.176;2023-05-14T04:04:18;11.60;99.90
19941;DHT22;10132;50.864;5.176;2023-05-14T04:06:22;11.60;99.90
19941;DHT22;10132;50.864;5.176;2023-05-14T04:08:25;11.80;99.90
19941;DHT22;10132;50.864;5.176;2023-05-14T04:10:27;11.90;99.90
19941;DHT22;10132;50.864;5.176;2023-05-14T04:12:29;12.00;99.90
19941;DHT22;10132;50.864;5.176;2023-05-14T04:14:32;12.10;99.90
19941;DHT22;10132;50.864;5.176;2023-05-14T04:16:35;12.10;99.90
19941;DHT22;10132;50.864;5.176;2023-05-14T04:18:37;12.10;99.90
19941;DHT22;10132;50.864;5.176;2023-05-14T04:20:39;12.10;99.90
19941;DHT22;10132;50.864;5.176;2023-05-14T04:22:42;12.00;99.90
19941;DHT22;10132;50.864;5.176;2023-05-14T04:24:45;12.00;99.90
19941;DHT22;10132;50.864;5.176;2023-05-14T04:26:47;11.90;99.90
19941;DHT22;10132;50.864;5.176;2023-05-14T04:28:50;11.90;99.90
19941;DHT22;10132;50.864;5.176;2023-05-14T04:30:52;11.90;99.90
19941;DHT22;10132;50.864;5.176;2023-05-14T04:32:55;11.90;99.90
19941;DHT22;10132;50.864;5.176;2023-05-14T04:34:57;11.80;99.90
19941;DHT22;10132;50.864;5.176;2023-05-14T04:36:59;11.80;99.90
19941;DHT22;10132;50.864;5.176;2023-05-14T04:39:05;11.90;99.90
19941;DHT22;10132;50.864;5.176;2023-05-14T04:41:09;11.90;99.90
19941;DHT22;10132;50.864;5.176;2023-05-14T04:43:11;12.00;99.90
19941;DHT22;10132;50.864;5.176;2023-05-14T04:45:15;12.10;99.90
19941;DHT22;10132;50.864;5.176;2023-05-14T04:47:22;12.10;99.90
19941;DHT22;10132;50.864;5.176;2023-05-14T04:49:24;12.10;99.90
19941;DHT22;10132;50.864;5.176;2023-05-14T04:51:26;12.00;99.90
19941;DHT22;10132;50.864;5.176;2023-05-14T04:53:28;12.10;99.90
19941;DHT22;10132;50.864;5.176;2023-05-14T04:55:32;12.10;99.90
19941;DHT22;10132;50.864;5.176;2023-05-14T04:57:34;12.10;99.90
19941;DHT22;10132;50.864;5.176;2023-05-14T04:59:37;12.10;99.90
19941;DHT22;10132;50.864;5.176;2023-05-14T05:01:41;12.10;99.90
19941;DHT22;10132;50.864;5.176;2023-05-14T05:03:43;12.10;99.90
19941;DHT22;10132;50.864;5.176;2023-05-14T05:05:45;12.20;99.90
19941;DHT22;10132;50.864;5.176;2023-05-14T05:07:47;12.30;99.90
19941;DHT22;10132;50.864;5.176;2023-05-14T05:09:51;12.30;99.90
19941;DHT22;10132;50.864;5.176;2023-05-14T05:11:55;12.40;99.90
19941;DHT22;10132;50.864;5.176;2023-05-14T05:13:57;12.50;99.90
19941;DHT22;10132;50.864;5.176;2023-05-14T05:16:00;12.50;99.90
19941;DHT22;10132;50.864;5.176;2023-05-14T05:18:02;12.60;99.90
19941;DHT22;10132;50.864;5.176;2023-05-14T05:20:07;12.60;99.90
19941;DHT22;10132;50.864;5.176;2023-05-14T05:22:10;12.70;99.90
19941;DHT22;10132;50.864;5.176;2023-05-14T05:24:12;12.70;99.90
19941;DHT22;10132;50.864;5.176;2023-05-14T05:26:14;12.60;99.90
19941;DHT22;10132;50.864;5.176;2023-05-14T05:28:18;12.80;99.90
19941;DHT22;10132;50.864;5.176;2023-05-14T05:30:20;12.90;99.90
19941;DHT22;10132;50.864;5.176;2023-05-14T05:32:23;13.00;99.90
19941;DHT22;10132;50.864;5.176;2023-05-14T05:34:25;13.00;99.90
19941;DHT22;10132;50.864;5.176;2023-05-14T05:36:27;13.00;99.90
19941;DHT22;10132;50.864;5.176;2023-05-14T05:38:30;12.90;99.90
19941;DHT22;10132;50.864;5.176;2023-05-14T05:40:32;13.00;99.90
19941;DHT22;10132;50.864;5.176;2023-05-14T05:42:34;13.10;99.90
19941;DHT22;10132;50.864;5.176;2023-05-14T05:44:39;13.30;99.90
19941;DHT22;10132;50.864;5.176;2023-05-14T05:46:41;13.00;99.90
19941;DHT22;10132;50.864;5.176;2023-05-14T05:48:43;12.90;99.90
19941;DHT22;10132;50.864;5.176;2023-05-14T05:50:48;13.00;99.90
19941;DHT22;10132;50.864;5.176;2023-05-14T05:52:51;13.20;99.90
19941;DHT22;10132;50.864;5.176;2023-05-14T05:54:53;13.20;99.90
19941;DHT22;10132;50.864;5.176;2023-05-14T05:56:56;13.20;99.90
19941;DHT22;10132;50.864;5.176;2023-05-14T05:58:58;13.20;99.90
19941;DHT22;10132;50.864;5.176;2023-05-14T06:01:02;13.20;99.90
19941;DHT22;10132;50.864;5.176;2023-05-14T06:03:04;13.20;99.90
19941;DHT22;10132;50.864;5.176;2023-05-14T06:05:07;13.10;99.90
19941;DHT22;10132;50.864;5.176;2023-05-14T06:07:10;12.90;99.90
19941;DHT22;10132;50.864;5.176;2023-05-14T06:09:12;13.00;99.90
19941;DHT22;10132;50.864;5.176;2023-05-14T06:11:14;13.10;99.90
19941;DHT22;10132;50.864;5.176;2023-05-14T06:13:16;13.10;99.90
19941;DHT22;10132;50.864;5.176;2023-05-14T06:15:20;13.20;99.90
19941;DHT22;10132;50.864;5.176;2023-05-14T06:17:24;13.30;99.90
19941;DHT22;10132;50.864;5.176;2023-05-14T06:19:26;13.30;99.90
19941;DHT22;10132;50.864;5.176;2023-05-14T06:21:28;13.20;99.90
19941;DHT22;10132;50.864;5.176;2023-05-14T06:23:32;13.30;99.90
19941;DHT22;10132;50.864;5.176;2023-05-14T06:25:34;13.50;99.90
19941;DHT22;10132;50.864;5.176;2023-05-14T06:27:36;13.70;99.90
19941;DHT22;10132;50.864;5.176;2023-05-14T06:29:39;13.80;99.90
19941;DHT22;10132;50.864;5.176;2023-05-14T06:31:41;13.90;99.90
19941;DHT22;10132;50.864;5.176;2023-05-14T06:33:44;13.90;99.90
19941;DHT22;10132;50.864;5.176;2023-05-14T06:35:46;13.90;99.90
19941;DHT22;10132;50.864;5.176;2023-05-14T06:37:49;13.70;99.90
19941;DHT22;10132;50.864;5.176;2023-05-14T06:39:51;13.70;99.90
19941;DHT22;10132;50.864;5.176;2023-05-14T06:41:53;13.70;99.90
19941;DHT22;10132;50.864;5.176;2023-05-14T06:43:55;13.80;99.90
19941;DHT22;10132;50.864;5.176;2023-05-14T06:45:58;14.00;99.90
19941;DHT22;10132;50.864;5.176;2023-05-14T06:48:00;14.20;99.90
19941;DHT22;10132;50.864;5.176;2023-05-14T06:50:05;14.20;99.90
19941;DHT22;10132;50.864;5.176;2023-05-14T06:52:07;14.40;99.90
19941;DHT22;10132;50.864;5.176;2023-05-14T06:54:10;14.50;99.90
19941;DHT22;10132;50.864;5.176;2023-05-14T06:56:12;14.40;99.90
19941;DHT22;10132;50.864;5.176;2023-05-14T06:58:15;14.50;99.90
19941;DHT22;10132;50.864;5.176;2023-05-14T07:00:18;14.60;99.90
19941;DHT22;10132;50.864;5.176;2023-05-14T07:02:22;14.60;99.90
19941;DHT22;10132;50.864;5.176;2023-05-14T07:04:24;14.60;99.90
19941;DHT22;10132;50.864;5.176;2023-05-14T07:06:28;14.60;99.90
19941;DHT22;10132;50.864;5.176;2023-05-14T07:08:30;14.70;99.90
19941;DHT22;10132;50.864;5.176;2023-05-14T07:10:32;14.70;99.90
19941;DHT22;10132;50.864;5.176;2023-05-14T07:12:36;14.70;99.90
19941;DHT22;10132;50.864;5.176;2023-05-14T07:14:38;14.70;99.90
19941;DHT22;10132;50.864;5.176;2023-05-14T07:16:40;14.60;99.90
19941;DHT22;10132;50.864;5.176;2023-05-14T07:18:43;14.60;99.90
19941;DHT22;10132;50.864;5.176;2023-05-14T07:20:45;14.60;99.90
19941;DHT22;10132;50.864;5.176;2023-05-14T07:22:48;14.60;99.90
19941;DHT22;10132;50.864;5.176;2023-05-14T07:24:51;14.60;99.90
19941;DHT22;10132;50.864;5.176;2023-05-14T07:26:53;14.90;99.90
19941;DHT22;10132;50.864;5.176;2023-05-14T07:28:56;15.30;99.90
19941;DHT22;10132;50.864;5.176;2023-05-14T07:30:59;15.60;99.90
19941;DHT22;10132;50.864;5.176;2023-05-14T07:33:01;15.50;99.90
19941;DHT22;10132;50.864;5.176;2023-05-14T07:35:04;15.70;99.90
19941;DHT22;10132;50.864;5.176;2023-05-14T07:37:07;16.00;99.90
19941;DHT22;10132;50.864;5.176;2023-05-14T07:39:10;16.00;99.90
19941;DHT22;10132;50.864;5.176;2023-05-14T07:41:13;15.90;99.90
19941;DHT22;10132;50.864;5.176;2023-05-14T07:43:15;15.80;99.90
19941;DHT22;10132;50.864;5.176;2023-05-14T07:45:18;15.80;99.90
19941;DHT22;10132;50.864;5.176;2023-05-14T07:47:20;15.90;99.90
19941;DHT22;10132;50.864;5.176;2023-05-14T07:49:22;15.80;99.90
19941;DHT22;10132;50.864;5.176;2023-05-14T07:51:26;15.70;99.90
19941;DHT22;10132;50.864;5.176;2023-05-14T07:53:28;15.60;99.90
19941;DHT22;10132;50.864;5.176;2023-05-14T07:55:32;15.60;99.90
19941;DHT22;10132;50.864;5.176;2023-05-14T07:57:49;15.70;99.90
19941;DHT22;10132;50.864;5.176;2023-05-14T07:59:52;15.80;99.90
19941;DHT22;10132;50.864;5.176;2023-05-14T08:01:54;15.90;99.90
19941;DHT22;10132;50.864;5.176;2023-05-14T08:03:57;15.90;99.90
19941;DHT22;10132;50.864;5.176;2023-05-14T08:05:59;15.70;99.90
19941;DHT22;10132;50.864;5.176;2023-05-14T08:08:02;15.50;99.90
19941;DHT22;10132;50.864;5.176;2023-05-14T08:10:05;15.70;99.90
19941;DHT22;10132;50.864;5.176;2023-05-14T08:12:09;15.80;99.90
19941;DHT22;10132;50.864;5.176;2023-05-14T08:14:11;15.70;99.90
19941;DHT22;10132;50.864;5.176;2023-05-14T08:16:13;15.60;99.90
19941;DHT22;10132;50.864;5.176;2023-05-14T08:18:16;15.70;99.90
19941;DHT22;10132;50.864;5.176;2023-05-14T08:20:18;16.00;99.90
19941;DHT22;10132;50.864;5.176;2023-05-14T08:22:20;15.90;99.90
19941;DHT22;10132;50.864;5.176;2023-05-14T08:24:23;15.90;99.90
19941;DHT22;10132;50.864;5.176;2023-05-14T08:26:25;16.20;99.90
19941;DHT22;10132;50.864;5.176;2023-05-14T08:28:29;16.50;99.90
19941;DHT22;10132;50.864;5.176;2023-05-14T08:30:31;16.50;99.90
19941;DHT22;10132;50.864;5.176;2023-05-14T08:32:34;16.70;99.90
19941;DHT22;10132;50.864;5.176;2023-05-14T08:34:37;16.70;99.90
19941;DHT22;10132;50.864;5.176;2023-05-14T08:36:40;16.30;99.90
19941;DHT22;10132;50.864;5.176;2023-05-14T08:38:42;16.40;99.90
19941;DHT22;10132;50.864;5.176;2023-05-14T08:40:47;16.20;99.90
19941;DHT22;10132;50.864;5.176;2023-05-14T08:42:50;16.20;99.90
19941;DHT22;10132;50.864;5.176;2023-05-14T08:44:59;16.20;99.90
19941;DHT22;10132;50.864;5.176;2023-05-14T08:47:01;16.40;99.90
19941;DHT22;10132;50.864;5.176;2023-05-14T08:49:14;16.70;99.90
19941;DHT22;10132;50.864;5.176;2023-05-14T08:51:19;16.90;99.90
19941;DHT22;10132;50.864;5.176;2023-05-14T08:53:21;17.10;99.90
19941;DHT22;10132;50.864;5.176;2023-05-14T08:55:23;17.20;99.90
19941;DHT22;10132;50.864;5.176;2023-05-14T08:57:27;17.30;99.90
19941;DHT22;10132;50.864;5.176;2023-05-14T08:59:30;17.60;99.90
19941;DHT22;10132;50.864;5.176;2023-05-14T09:01:36;17.40;99.90
19941;DHT22;10132;50.864;5.176;2023-05-14T09:03:39;17.50;99.90
19941;DHT22;10132;50.864;5.176;2023-05-14T09:05:42;17.40;99.90
19941;DHT22;10132;50.864;5.176;2023-05-14T09:07:44;17.60;99.90
19941;DHT22;10132;50.864;5.176;2023-05-14T09:09:47;17.50;99.90
19941;DHT22;10132;50.864;5.176;2023-05-14T09:11:50;17.40;99.90
19941;DHT22;10132;50.864;5.176;2023-05-14T09:13:52;17.40;99.90
19941;DHT22;10132;50.864;5.176;2023-05-14T09:15:55;17.50;99.90
19941;DHT22;10132;50.864;5.176;2023-05-14T09:17:59;17.80;99.90
19941;DHT22;10132;50.864;5.176;2023-05-14T09:20:02;18.00;99.90
19941;DHT22;10132;50.864;5.176;2023-05-14T09:22:07;18.10;99.90
19941;DHT22;10132;50.864;5.176;2023-05-14T09:24:18;18.20;99.90
19941;DHT22;10132;50.864;5.176;2023-05-14T09:26:23;18.10;99.90
19941;DHT22;10132;50.864;5.176;2023-05-14T09:28:26;18.30;99.90
19941;DHT22;10132;50.864;5.176;2023-05-14T09:30:28;18.70;99.90
19941;DHT22;10132;50.864;5.176;2023-05-14T09:32:35;19.10;99.90
19941;DHT22;10132;50.864;5.176;2023-05-14T09:34:39;19.10;99.90
19941;DHT22;10132;50.864;5.176;2023-05-14T09:36:41;19.00;99.90
19941;DHT22;10132;50.864;5.176;2023-05-14T09:38:44;19.10;99.90
19941;DHT22;10132;50.864;5.176;2023-05-14T09:40:47;19.00;99.90
19941;DHT22;10132;50.864;5.176;2023-05-14T09:42:49;18.80;99.90
19941;DHT22;10132;50.864;5.176;2023-05-14T09:44:52;19.10;99.90
19941;DHT22;10132;50.864;5.176;2023-05-14T09:46:55;19.20;99.90
19941;DHT22;10132;50.864;5.176;2023-05-14T09:48:57;19.00;99.90
19941;DHT22;10132;50.864;5.176;2023-05-14T09:51:00;18.60;99.90
19941;DHT22;10132;50.864;5.176;2023-05-14T09:53:04;18.70;99.90
19941;DHT22;10132;50.864;5.176;2023-05-14T09:55:08;18.80;99.90
19941;DHT22;10132;50.864;5.176;2023-05-14T09:57:10;18.60;99.90
19941;DHT22;10132;50.864;5.176;2023-05-14T09:59:13;18.60;99.90
19941;DHT22;10132;50.864;5.176;2023-05-14T10:01:17;18.50;99.90
19941;DHT22;10132;50.864;5.176;2023-05-14T10:03:21;18.70;99.90
19941;DHT22;10132;50.864;5.176;2023-05-14T10:05:26;19.10;99.90
19941;DHT22;10132;50.864;5.176;2023-05-14T10:07:34;19.70;99.90
19941;DHT22;10132;50.864;5.176;2023-05-14T10:09:37;20.00;99.90
19941;DHT22;10132;50.864;5.176;2023-05-14T10:11:43;19.60;99.90
19941;DHT22;10132;50.864;5.176;2023-05-14T10:13:54;19.70;99.90
19941;DHT22;10132;50.864;5.176;2023-05-14T10:16:06;19.80;99.90
19941;DHT22;10132;50.864;5.176;2023-05-14T10:18:11;20.00;99.90
19941;DHT22;10132;50.864;5.176;2023-05-14T10:20:14;20.00;99.90
19941;DHT22;10132;50.864;5.176;2023-05-14T10:22:22;20.20;99.90
19941;DHT22;10132;50.864;5.176;2023-05-14T10:24:28;20.10;99.90
19941;DHT22;10132;50.864;5.176;2023-05-14T10:26:31;20.40;99.90
19941;DHT22;10132;50.864;5.176;2023-05-14T10:28:33;20.00;99.90
19941;DHT22;10132;50.864;5.176;2023-05-14T10:30:42;19.70;99.90
19941;DHT22;10132;50.864;5.176;2023-05-14T10:32:45;19.80;99.90
19941;DHT22;10132;50.864;5.176;2023-05-14T10:34:47;19.80;99.90
19941;DHT22;10132;50.864;5.176;2023-05-14T10:36:49;20.00;99.90
19941;DHT22;10132;50.864;5.176;2023-05-14T10:38:55;19.80;99.90
19941;DHT22;10132;50.864;5.176;2023-05-14T10:41:00;19.90;99.90
19941;DHT22;10132;50.864;5.176;2023-05-14T10:43:03;20.20;99.90
19941;DHT22;10132;50.864;5.176;2023-05-14T10:45:13;20.60;99.90
19941;DHT22;10132;50.864;5.176;2023-05-14T10:47:17;20.50;99.90
19941;DHT22;10132;50.864;5.176;2023-05-14T10:49:23;20.00;99.90
19941;DHT22;10132;50.864;5.176;2023-05-14T10:51:30;19.80;99.90
19941;DHT22;10132;50.864;5.176;2023-05-14T10:53:34;20.00;99.90
19941;DHT22;10132;50.864;5.176;2023-05-14T10:55:37;20.30;99.90
19941;DHT22;10132;50.864;5.176;2023-05-14T10:57:42;20.40;99.90
19941;DHT22;10132;50.864;5.176;2023-05-14T10:59:46;20.50;99.90
19941;DHT22;10132;50.864;5.176;2023-05-14T11:01:48;20.80;99.90
19941;DHT22;10132;50.864;5.176;2023-05-14T11:03:52;20.80;99.90
19941;DHT22;10132;50.864;5.176;2023-05-14T11:05:56;21.00;99.90
19941;DHT22;10132;50.864;5.176;2023-05-14T11:07:58;21.00;99.90
19941;DHT22;10132;50.864;5.176;2023-05-14T11:10:04;21.10;99.90
19941;DHT22;10132;50.864;5.176;2023-05-14T11:12:11;21.30;99.90
19941;DHT22;10132;50.864;5.176;2023-05-14T11:14:17;21.30;99.90
19941;DHT22;10132;50.864;5.176;2023-05-14T11:16:20;21.10;99.90
19941;DHT22;10132;50.864;5.176;2023-05-14T11:18:26;21.10;99.90
19941;DHT22;10132;50.864;5.176;2023-05-14T11:20:29;21.30;99.90
19941;DHT22;10132;50.864;5.176;2023-05-14T11:22:32;21.40;99.90
19941;DHT22;10132;50.864;5.176;2023-05-14T11:24:35;21.20;99.90
19941;DHT22;10132;50.864;5.176;2023-05-14T11:26:37;21.10;99.90
19941;DHT22;10132;50.864;5.176;2023-05-14T11:28:39;21.40;99.90
19941;DHT22;10132;50.864;5.176;2023-05-14T11:30:43;21.70;99.90
19941;DHT22;10132;50.864;5.176;2023-05-14T11:32:47;22.00;99.90
19941;DHT22;10132;50.864;5.176;2023-05-14T11:34:49;21.70;99.90
19941;DHT22;10132;50.864;5.176;2023-05-14T11:36:52;21.70;99.90
19941;DHT22;10132;50.864;5.176;2023-05-14T11:38:55;21.70;99.90
19941;DHT22;10132;50.864;5.176;2023-05-14T11:40:58;21.60;99.90
19941;DHT22;10132;50.864;5.176;2023-05-14T11:43:04;21.70;99.90
19941;DHT22;10132;50.864;5.176;2023-05-14T11:45:10;22.10;99.90
19941;DHT22;10132;50.864;5.176;2023-05-14T11:47:19;21.90;99.90
19941;DHT22;10132;50.864;5.176;2023-05-14T11:49:21;21.60;99.90
19941;DHT22;10132;50.864;5.176;2023-05-14T11:51:24;21.60;99.90
19941;DHT22;10132;50.864;5.176;2023-05-14T11:53:29;21.70;99.90
19941;DHT22;10132;50.864;5.176;2023-05-14T11:55:33;21.90;99.90
19941;DHT22;10132;50.864;5.176;2023-05-14T11:57:36;22.50;99.90
19941;DHT22;10132;50.864;5.176;2023-05-14T11:59:38;23.00;99.90
19941;DHT22;10132;50.864;5.176;2023-05-14T12:01:43;23.30;99.90
19941;DHT22;10132;50.864;5.176;2023-05-14T12:03:47;22.70;99.90
19941;DHT22;10132;50.864;5.176;2023-05-14T12:05:55;22.10;99.90
19941;DHT22;10132;50.864;5.176;2023-05-14T12:07:57;21.60;99.90
19941;DHT22;10132;50.864;5.176;2023-05-14T12:10:01;21.40;99.90
19941;DHT22;10132;50.864;5.176;2023-05-14T12:12:08;21.70;99.90
19941;DHT22;10132;50.864;5.176;2023-05-14T12:14:13;21.90;99.90
19941;DHT22;10132;50.864;5.176;2023-05-14T12:16:15;22.30;99.90
19941;DHT22;10132;50.864;5.176;2023-05-14T12:18:18;22.70;99.90
19941;DHT22;10132;50.864;5.176;2023-05-14T12:20:22;23.20;99.90
19941;DHT22;10132;50.864;5.176;2023-05-14T12:22:28;23.30;99.90
19941;DHT22;10132;50.864;5.176;2023-05-14T12:24:31;22.60;99.90
19941;DHT22;10132;50.864;5.176;2023-05-14T12:26:33;22.70;99.90
19941;DHT22;10132;50.864;5.176;2023-05-14T12:28:38;22.80;99.90
19941;DHT22;10132;50.864;5.176;2023-05-14T12:30:43;23.00;99.90
19941;DHT22;10132;50.864;5.176;2023-05-14T12:32:47;23.00;99.90
19941;DHT22;10132;50.864;5.176;2023-05-14T12:34:52;23.30;99.90
19941;DHT22;10132;50.864;5.176;2023-05-14T12:36:55;23.80;99.90
19941;DHT22;10132;50.864;5.176;2023-05-14T12:38:59;23.50;99.90
19941;DHT22;10132;50.864;5.176;2023-05-14T12:41:03;23.40;99.90
19941;DHT22;10132;50.864;5.176;2023-05-14T12:43:06;23.50;99.90
19941;DHT22;10132;50.864;5.176;2023-05-14T12:45:09;24.00;99.90
19941;DHT22;10132;50.864;5.176;2023-05-14T12:47:12;23.50;99.90
19941;DHT22;10132;50.864;5.176;2023-05-14T12:49:14;23.50;99.90
19941;DHT22;10132;50.864;5.176;2023-05-14T12:51:17;23.10;99.90
19941;DHT22;10132;50.864;5.176;2023-05-14T12:53:21;22.70;99.90
19941;DHT22;10132;50.864;5.176;2023-05-14T12:55:23;22.60;99.90
19941;DHT22;10132;50.864;5.176;2023-05-14T12:57:25;22.50;99.90
19941;DHT22;10132;50.864;5.176;2023-05-14T12:59:28;22.60;99.90